Baltimore, Maryland
Traffic Map
Current Weather Conditions
Baltimore, Maryland
Few Clouds
Few Clouds
60°
Feels Like: 60°
Wind Chill: 60° Ceiling: Unl
Heat Index: 60° Visibility: 10mi
Dew Point: 59° Wind: 5mph
Humidity: 96% Direction: 200° (SSW)
Pressure: 30.31in Gusts: 0mph
Raw Report DataKBWI 210754Z 20004KT 10SM FEW250 16/15 A3031 RMK AO2 SLP263 T01560150 $
Traffic Incident Summary
Active as of:
Severity:
Category:
InformationThere was an issue retrieving the traffic information for this location. Please try a different location or try again shortly.
Advertisements